Boa Tyr — LAMU — position and weather

sailwx.info

Track history (hours):
 
Tides and Currents Weather Stations Pressure Air Temp Water Temp Dewpoint Dewpoint Depression Visibility Wind Speed Wind Dir Waves Ship Positions

Boa Tyr

Last reported at 2014-Dec-20 21:24 UTC. Time now 2014-Dec-21 04:05 UTC.
Position N 63°35' E 009°25'.

Length 33 m; draft 4.8 m.

Type: Tug. MMSI: 258395000.

Date/timePositionNaut miles runAvg speedWind from/ knotsBaromVisibWave heightAir tempDewpointWater temp
2014-Dec-20 21:24N 63°35' E 009°25'7 6.9
2014-Dec-20 20:22N 63°42' E 009°30'82 6.4
2014-Dec-20 07:33N 64°51' E 011°13'1 0.6
2014-Dec-20 06:33N 64°52' E 011°14'6 6.1
2014-Dec-20 05:33N 64°47' E 011°04'61 3.0
2014-Dec-19 09:04N 63°46' E 011°16'  
2014-Dec-15 05:33N 64°50' E 011°11'8 8.1
2014-Dec-15 04:33N 64°55' E 011°25'8 8.3
2014-Dec-15 03:33N 65°01' E 011°40'8 8.4
2014-Dec-15 02:33N 65°08' E 011°50'8 8.3
2014-Dec-15 01:33N 65°16' E 011°57'24 1.0
2014-Dec-14 01:34N 64°56' E 011°22'9 9.4
2014-Dec-14 00:34N 64°49' E 011°09'2 0.1
2014-Dec-13 11:33N 64°50' E 011°11'6 5.9
2014-Dec-13 10:33N 64°54' E 011°21'7 6.9
2014-Dec-13 09:34N 65°00' E 011°29'7 7.3
2014-Dec-13 08:32N 65°04' E 011°45'9 7.3
2014-Dec-13 07:17N 65°12' E 011°53'  
Track history (hours):
 
Tides and Currents Weather Stations Pressure Air Temp Water Temp Dewpoint Dewpoint Depression Visibility Wind Speed Wind Dir Waves Ship Positions

Boa Tyr

Last reported at 2014-Dec-20 21:24 UTC. Time now 2014-Dec-21 04:05 UTC.
Position N 63°35' E 009°25'.

Length 33 m; draft 4.8 m.

Type: Tug. MMSI: 258395000.

Date/timePositionNaut miles runAvg speedWind from/ knotsBaromVisibWave heightAir tempDewpointWater temp
2014-Dec-20 21:24N 63°35' E 009°25'7 6.9
2014-Dec-20 20:22N 63°42' E 009°30'82 6.4
2014-Dec-20 07:33N 64°51' E 011°13'1 0.6
2014-Dec-20 06:33N 64°52' E 011°14'6 6.1
2014-Dec-20 05:33N 64°47' E 011°04'61 3.0
2014-Dec-19 09:04N 63°46' E 011°16'  
2014-Dec-15 05:33N 64°50' E 011°11'8 8.1
2014-Dec-15 04:33N 64°55' E 011°25'8 8.3
2014-Dec-15 03:33N 65°01' E 011°40'8 8.4
2014-Dec-15 02:33N 65°08' E 011°50'8 8.3
2014-Dec-15 01:33N 65°16' E 011°57'24 1.0
2014-Dec-14 01:34N 64°56' E 011°22'9 9.4
2014-Dec-14 00:34N 64°49' E 011°09'2 0.1
2014-Dec-13 11:33N 64°50' E 011°11'6 5.9
2014-Dec-13 10:33N 64°54' E 011°21'7 6.9
2014-Dec-13 09:34N 65°00' E 011°29'7 7.3
2014-Dec-13 08:32N 65°04' E 011°45'9 7.3
2014-Dec-13 07:17N 65°12' E 011°53'  

Dump ship's entire track history